createdAt,value
2022-08-18T00:00:20.371Z,1007.64
2022-08-18T00:01:15.083Z,1007.60
2022-08-18T00:02:35.691Z,1007.62
2022-08-18T00:03:53.371Z,1007.63
2022-08-18T00:04:35.537Z,1007.58
2022-08-18T00:05:14.804Z,1007.56
2022-08-18T00:06:14.609Z,1007.55
2022-08-18T00:07:14.571Z,1007.59
2022-08-18T00:08:38.486Z,1007.58
2022-08-18T00:09:14.562Z,1007.65
2022-08-18T00:10:18.702Z,1007.66
2022-08-18T00:11:15.110Z,1007.69
2022-08-18T00:12:14.558Z,1007.68
2022-08-18T00:13:14.555Z,1007.68
2022-08-18T00:14:35.508Z,1007.64
2022-08-18T00:15:14.496Z,1007.61
2022-08-18T00:16:14.475Z,1007.59
2022-08-18T00:17:14.486Z,1007.52
2022-08-18T00:18:14.447Z,1007.54
2022-08-18T00:19:14.432Z,1007.50
2022-08-18T00:20:35.430Z,1007.51
2022-08-18T00:21:14.408Z,1007.49
2022-08-18T00:22:14.926Z,1007.48
2022-08-18T00:23:14.374Z,1007.51
2022-08-18T00:24:14.372Z,1007.48
2022-08-18T00:25:14.341Z,1007.49
2022-08-18T00:26:37.096Z,1007.48
2022-08-18T00:27:14.358Z,1007.48
2022-08-18T00:28:14.357Z,1007.48
2022-08-18T00:29:14.304Z,1007.51
2022-08-18T00:30:14.301Z,1007.56
2022-08-18T00:31:14.273Z,1007.52
2022-08-18T00:32:35.281Z,1007.53
2022-08-18T00:33:14.292Z,1007.55
2022-08-18T00:34:14.240Z,1007.52
2022-08-18T00:35:14.273Z,1007.52
2022-08-18T00:36:14.210Z,1007.55
2022-08-18T00:37:14.206Z,1007.55
2022-08-18T00:38:36.139Z,1007.54
2022-08-18T00:39:14.171Z,1007.54
2022-08-18T00:40:14.246Z,1007.59
2022-08-18T00:41:14.160Z,1007.58
2022-08-18T00:42:14.149Z,1007.57
2022-08-18T00:43:14.153Z,1007.53
2022-08-18T00:44:35.155Z,1007.50
2022-08-18T00:45:14.106Z,1007.50
2022-08-18T00:46:14.105Z,1007.48
2022-08-18T00:47:14.096Z,1007.50
2022-08-18T00:48:14.604Z,1007.49
2022-08-18T00:49:14.085Z,1007.47
2022-08-18T00:50:35.071Z,1007.51
2022-08-18T00:51:14.054Z,1007.53
2022-08-18T00:52:14.006Z,1007.54
2022-08-18T00:53:16.630Z,1007.54
2022-08-18T00:54:14.006Z,1007.56
2022-08-18T00:55:13.969Z,1007.54
2022-08-18T00:56:34.964Z,1007.54
2022-08-18T00:57:13.943Z,1007.52
2022-08-18T00:58:13.940Z,1007.54
2022-08-18T00:59:13.942Z,1007.58
2022-08-18T01:00:13.903Z,1007.58
2022-08-18T01:01:14.020Z,1007.59
2022-08-18T01:02:34.897Z,1007.59
2022-08-18T01:03:13.883Z,1007.60
2022-08-18T01:04:13.888Z,1007.61
2022-08-18T01:05:13.873Z,1007.60
2022-08-18T01:06:13.851Z,1007.63
2022-08-18T01:07:13.819Z,1007.58
2022-08-18T01:08:34.811Z,1007.59
2022-08-18T01:09:13.831Z,1007.63
2022-08-18T01:10:13.811Z,1007.61
2022-08-18T01:11:13.768Z,1007.60
2022-08-18T01:12:44.877Z,1007.53
2022-08-18T01:13:13.759Z,1007.52
2022-08-18T01:14:34.735Z,1007.53
2022-08-18T01:15:27.474Z,1007.54
2022-08-18T01:16:13.760Z,1007.55
2022-08-18T01:17:13.725Z,1007.54
2022-08-18T01:18:13.714Z,1007.57
2022-08-18T01:19:13.675Z,1007.57
2022-08-18T01:20:34.687Z,1007.59
2022-08-18T01:21:13.652Z,1007.61
2022-08-18T01:22:13.644Z,1007.59
2022-08-18T01:23:13.666Z,1007.61
2022-08-18T01:24:16.405Z,1007.58
2022-08-18T01:25:14.141Z,1007.53
2022-08-18T01:26:34.605Z,1007.56
2022-08-18T01:27:13.574Z,1007.57
2022-08-18T01:28:13.595Z,1007.57
2022-08-18T01:29:18.992Z,1007.58
2022-08-18T01:30:13.549Z,1007.59
2022-08-18T01:31:13.560Z,1007.57
2022-08-18T01:32:34.556Z,1007.55
2022-08-18T01:33:13.554Z,1007.58
2022-08-18T01:34:13.492Z,1007.57
2022-08-18T01:35:13.487Z,1007.60
2022-08-18T01:36:13.471Z,1007.57
2022-08-18T01:37:13.453Z,1007.55
2022-08-18T01:38:34.445Z,1007.53
2022-08-18T01:39:13.443Z,1007.50
2022-08-18T01:41:25.076Z,1007.51
2022-08-18T01:41:26.734Z,1007.53
2022-08-18T01:42:13.534Z,1007.51
2022-08-18T01:43:13.372Z,1007.50
2022-08-18T01:44:34.371Z,1007.49
2022-08-18T01:45:13.352Z,1007.51
2022-08-18T01:46:14.157Z,1007.49
2022-08-18T01:47:13.341Z,1007.49
2022-08-18T01:48:13.309Z,1007.51
2022-08-18T01:49:13.332Z,1007.51
2022-08-18T01:50:34.358Z,1007.47
2022-08-18T01:51:13.282Z,1007.46
2022-08-18T01:52:13.274Z,1007.44
2022-08-18T01:53:13.279Z,1007.45
2022-08-18T01:54:13.281Z,1007.40
2022-08-18T01:55:14.823Z,1007.41
2022-08-18T01:56:34.252Z,1007.41
2022-08-18T01:57:13.212Z,1007.40
2022-08-18T01:58:13.214Z,1007.41
2022-08-18T01:59:13.181Z,1007.42
2022-08-18T02:00:13.183Z,1007.40
2022-08-18T02:01:13.232Z,1007.43
2022-08-18T02:02:34.162Z,1007.41
2022-08-18T02:03:13.142Z,1007.41
2022-08-18T02:04:33.903Z,1007.44
2022-08-18T02:05:13.106Z,1007.44
2022-08-18T02:06:13.872Z,1007.45
2022-08-18T02:07:13.083Z,1007.44
2022-08-18T02:08:34.089Z,1007.42
2022-08-18T02:09:13.038Z,1007.45
2022-08-18T02:10:13.240Z,1007.42
2022-08-18T02:11:13.050Z,1007.47
2022-08-18T02:12:13.012Z,1007.50
2022-08-18T02:13:13.683Z,1007.50
2022-08-18T02:14:34.008Z,1007.51
2022-08-18T02:15:13.017Z,1007.47
2022-08-18T02:16:12.970Z,1007.43
2022-08-18T02:17:12.950Z,1007.41
2022-08-18T02:18:13.064Z,1007.45
2022-08-18T02:19:12.949Z,1007.43
2022-08-18T02:20:33.940Z,1007.43
2022-08-18T02:21:12.928Z,1007.40
2022-08-18T02:22:12.877Z,1007.41
2022-08-18T02:23:12.886Z,1007.41
2022-08-18T02:24:12.894Z,1007.40
2022-08-18T02:25:12.851Z,1007.39
2022-08-18T02:26:33.845Z,1007.35
2022-08-18T02:27:12.813Z,1007.37
2022-08-18T02:28:12.820Z,1007.37
2022-08-18T02:29:12.829Z,1007.37
2022-08-18T02:30:12.812Z,1007.35
2022-08-18T02:31:12.780Z,1007.31
2022-08-18T02:32:33.835Z,1007.35
2022-08-18T02:33:12.764Z,1007.32
2022-08-18T02:34:12.773Z,1007.29
2022-08-18T02:35:12.740Z,1007.33
2022-08-18T02:36:12.712Z,1007.33
2022-08-18T02:37:15.429Z,1007.29
2022-08-18T02:38:33.720Z,1007.31
2022-08-18T02:39:12.690Z,1007.30
2022-08-18T02:40:14.845Z,1007.28
2022-08-18T02:41:12.649Z,1007.30
2022-08-18T02:42:12.694Z,1007.26
2022-08-18T02:43:12.648Z,1007.31
2022-08-18T02:44:33.662Z,1007.32
2022-08-18T02:45:12.628Z,1007.30
2022-08-18T02:46:12.635Z,1007.31
2022-08-18T02:47:12.592Z,1007.29
2022-08-18T02:48:12.594Z,1007.29
2022-08-18T02:49:12.566Z,1007.29
2022-08-18T02:50:33.567Z,1007.25
2022-08-18T02:51:12.582Z,1007.31
2022-08-18T02:52:12.516Z,1007.35
2022-08-18T02:53:12.541Z,1007.33
2022-08-18T02:54:12.500Z,1007.32
2022-08-18T02:55:13.198Z,1007.33
2022-08-18T02:56:41.802Z,1007.34
2022-08-18T02:57:12.454Z,1007.36
2022-08-18T02:58:12.468Z,1007.34
2022-08-18T02:59:12.505Z,1007.35
2022-08-18T03:00:12.598Z,1007.36
2022-08-18T03:01:12.466Z,1007.35
2022-08-18T03:02:33.411Z,1007.34
2022-08-18T03:03:12.398Z,1007.38
2022-08-18T03:04:12.471Z,1007.36
2022-08-18T03:05:14.627Z,1007.39
2022-08-18T03:06:12.381Z,1007.40
2022-08-18T03:07:12.351Z,1007.41
2022-08-18T03:08:33.351Z,1007.42
2022-08-18T03:09:12.355Z,1007.44
2022-08-18T03:10:33.166Z,1007.47
2022-08-18T03:11:12.302Z,1007.44
2022-08-18T03:12:12.372Z,1007.44
2022-08-18T03:13:12.259Z,1007.44
2022-08-18T03:14:33.299Z,1007.44
2022-08-18T03:15:12.282Z,1007.44
2022-08-18T03:16:12.222Z,1007.42
2022-08-18T03:17:12.348Z,1007.42
2022-08-18T03:18:12.240Z,1007.40
2022-08-18T03:19:12.192Z,1007.42
2022-08-18T03:20:33.226Z,1007.43
2022-08-18T03:21:12.157Z,1007.42
2022-08-18T03:22:27.344Z,1007.48
2022-08-18T03:23:12.188Z,1007.45
2022-08-18T03:24:12.125Z,1007.50
2022-08-18T03:25:12.111Z,1007.52
2022-08-18T03:26:33.158Z,1007.47
2022-08-18T03:27:12.101Z,1007.53
2022-08-18T03:28:12.088Z,1007.53
2022-08-18T03:29:12.071Z,1007.49
2022-08-18T03:30:12.109Z,1007.50
2022-08-18T03:31:12.065Z,1007.50
2022-08-18T03:32:33.709Z,1007.45
2022-08-18T03:33:12.048Z,1007.52
2022-08-18T03:34:12.700Z,1007.49
2022-08-18T03:35:12.036Z,1007.43
2022-08-18T03:36:12.025Z,1007.49
2022-08-18T03:37:11.964Z,1007.48
2022-08-18T03:38:33.726Z,1007.48
2022-08-18T03:39:11.973Z,1007.48
2022-08-18T03:40:12.015Z,1007.50
2022-08-18T03:41:11.987Z,1007.52
2022-08-18T03:42:12.589Z,1007.56
2022-08-18T03:43:33.414Z,1007.53
2022-08-18T03:44:32.910Z,1007.57
2022-08-18T03:45:13.096Z,1007.58
2022-08-18T03:46:11.979Z,1007.60
2022-08-18T03:47:11.940Z,1007.59
2022-08-18T03:48:11.945Z,1007.65
2022-08-18T03:49:11.878Z,1007.64
2022-08-18T03:50:32.855Z,1007.64
2022-08-18T03:51:11.807Z,1007.65
2022-08-18T03:52:11.827Z,1007.65
2022-08-18T03:53:11.773Z,1007.72
2022-08-18T03:54:12.596Z,1007.67
2022-08-18T03:55:11.751Z,1007.69
2022-08-18T03:56:32.782Z,1007.73
2022-08-18T03:57:11.714Z,1007.74
2022-08-18T03:58:11.696Z,1007.76
2022-08-18T03:59:11.704Z,1007.73
2022-08-18T04:00:11.702Z,1007.74
2022-08-18T04:01:11.750Z,1007.70
2022-08-18T04:02:32.709Z,1007.70
2022-08-18T04:03:11.656Z,1007.71
2022-08-18T04:04:12.318Z,1007.70
2022-08-18T04:05:11.632Z,1007.71
2022-08-18T04:06:12.706Z,1007.75
2022-08-18T04:07:11.616Z,1007.73
2022-08-18T04:08:32.630Z,1007.72
2022-08-18T04:09:11.571Z,1007.73
2022-08-18T04:10:14.065Z,1007.74
2022-08-18T04:11:11.582Z,1007.70
2022-08-18T04:12:11.595Z,1007.73
2022-08-18T04:13:12.190Z,1007.74
2022-08-18T04:14:32.526Z,1007.73
2022-08-18T04:15:11.507Z,1007.80
2022-08-18T04:16:11.521Z,1007.78
2022-08-18T04:17:11.519Z,1007.78
2022-08-18T04:18:11.745Z,1007.76
2022-08-18T04:19:11.475Z,1007.83
2022-08-18T04:20:32.440Z,1007.81
2022-08-18T04:21:11.476Z,1007.83
2022-08-18T04:22:11.450Z,1007.85
2022-08-18T04:23:11.436Z,1007.83
2022-08-18T04:24:11.421Z,1007.83
2022-08-18T04:25:11.371Z,1007.81
2022-08-18T04:26:32.376Z,1007.79
2022-08-18T04:27:11.362Z,1007.81
2022-08-18T04:28:11.379Z,1007.81
2022-08-18T04:29:11.314Z,1007.84
2022-08-18T04:30:11.307Z,1007.81
2022-08-18T04:31:11.318Z,1007.84
2022-08-18T04:32:32.305Z,1007.89
2022-08-18T04:33:11.315Z,1007.87
2022-08-18T04:34:11.288Z,1007.84
2022-08-18T04:35:14.069Z,1007.82
2022-08-18T04:36:11.240Z,1007.79
2022-08-18T04:37:11.252Z,1007.81
2022-08-18T04:38:32.248Z,1007.82
2022-08-18T04:39:11.267Z,1007.89
2022-08-18T04:40:11.328Z,1007.88
2022-08-18T04:41:11.179Z,1007.95
2022-08-18T04:42:11.180Z,1007.96
2022-08-18T04:43:11.175Z,1007.96
2022-08-18T04:44:32.194Z,1007.98
2022-08-18T04:45:11.124Z,1007.98
2022-08-18T04:46:11.154Z,1007.96
2022-08-18T04:47:11.129Z,1007.93
2022-08-18T04:48:11.123Z,1007.95
2022-08-18T04:49:11.165Z,1007.96
2022-08-18T04:50:32.175Z,1007.94
2022-08-18T04:51:11.054Z,1007.93
2022-08-18T04:52:38.972Z,1007.96
2022-08-18T04:53:11.045Z,1007.92
2022-08-18T04:54:11.035Z,1007.92
2022-08-18T04:55:11.105Z,1007.94
2022-08-18T04:56:32.047Z,1007.96
2022-08-18T04:57:11.071Z,1007.98
2022-08-18T04:58:10.982Z,1007.98
2022-08-18T04:59:10.971Z,1007.98
2022-08-18T05:00:11.004Z,1008.00
2022-08-18T05:01:11.007Z,1007.99
2022-08-18T05:02:31.919Z,1008.01
2022-08-18T05:03:10.917Z,1008.00
2022-08-18T05:04:10.920Z,1008.00
2022-08-18T05:05:10.910Z,1008.03
2022-08-18T05:06:10.914Z,1008.00
2022-08-18T05:07:10.904Z,1007.97
2022-08-18T05:08:31.842Z,1008.01
2022-08-18T05:09:10.850Z,1008.00
2022-08-18T05:10:10.912Z,1007.94
2022-08-18T05:11:10.836Z,1007.98
2022-08-18T05:12:10.867Z,1007.98
2022-08-18T05:13:10.784Z,1008.01
2022-08-18T05:14:32.770Z,1008.01
2022-08-18T05:15:10.796Z,1008.05
2022-08-18T05:16:14.818Z,1008.05
2022-08-18T05:17:10.763Z,1008.04
2022-08-18T05:18:10.726Z,1008.06
2022-08-18T05:19:10.725Z,1008.05
2022-08-18T05:20:31.725Z,1008.03
2022-08-18T05:21:10.699Z,1008.03
2022-08-18T05:22:10.715Z,1008.08
2022-08-18T05:23:10.660Z,1008.07
2022-08-18T05:24:11.283Z,1008.05
2022-08-18T05:25:10.663Z,1008.01
2022-08-18T05:26:31.654Z,1008.04
2022-08-18T05:27:10.633Z,1008.00
2022-08-18T05:28:10.596Z,1008.05
2022-08-18T05:29:18.409Z,1008.06
2022-08-18T05:30:10.592Z,1008.07
2022-08-18T05:31:13.639Z,1008.02
2022-08-18T05:32:47.187Z,1008.06
2022-08-18T05:33:10.612Z,1008.05
2022-08-18T05:34:10.531Z,1008.03
2022-08-18T05:35:10.541Z,1008.05
2022-08-18T05:36:10.545Z,1008.04
2022-08-18T05:37:10.526Z,1008.06
2022-08-18T05:38:31.613Z,1008.06
2022-08-18T05:39:10.467Z,1008.06
2022-08-18T05:40:11.658Z,1008.09
2022-08-18T05:41:14.058Z,1008.10
2022-08-18T05:42:10.536Z,1008.12
2022-08-18T05:43:10.440Z,1008.13
2022-08-18T05:44:31.513Z,1008.16
2022-08-18T05:45:10.437Z,1008.14
2022-08-18T05:46:10.387Z,1008.16
2022-08-18T05:47:10.393Z,1008.14
2022-08-18T05:48:10.373Z,1008.18
2022-08-18T05:49:10.389Z,1008.17
2022-08-18T05:50:31.401Z,1008.19
2022-08-18T05:51:10.321Z,1008.20
2022-08-18T05:52:11.351Z,1008.23
2022-08-18T05:53:13.238Z,1008.24
2022-08-18T05:54:10.338Z,1008.21
2022-08-18T05:55:10.367Z,1008.23
2022-08-18T05:56:31.346Z,1008.26
2022-08-18T05:57:10.265Z,1008.26
2022-08-18T05:58:10.322Z,1008.20
2022-08-18T05:59:10.274Z,1008.22
2022-08-18T06:00:10.238Z,1008.23
2022-08-18T06:01:10.241Z,1008.26
2022-08-18T06:02:31.289Z,1008.27
2022-08-18T06:03:10.262Z,1008.22
2022-08-18T06:04:10.206Z,1008.24
2022-08-18T06:05:10.212Z,1008.19
2022-08-18T06:06:11.178Z,1008.24
2022-08-18T06:07:10.139Z,1008.21
2022-08-18T06:08:31.242Z,1008.21
2022-08-18T06:09:10.153Z,1008.21
2022-08-18T06:10:10.119Z,1008.21
2022-08-18T06:11:17.313Z,1008.22
2022-08-18T06:12:10.080Z,1008.18
2022-08-18T06:13:10.080Z,1008.20
2022-08-18T06:14:31.062Z,1008.19
2022-08-18T06:15:10.066Z,1008.18
2022-08-18T06:16:10.075Z,1008.21
2022-08-18T06:17:10.052Z,1008.25
2022-08-18T06:18:10.010Z,1008.24
2022-08-18T06:19:10.003Z,1008.25
2022-08-18T06:20:31.023Z,1008.23
2022-08-18T06:21:10.006Z,1008.25
2022-08-18T06:22:09.978Z,1008.24
2022-08-18T06:23:09.989Z,1008.25
2022-08-18T06:24:09.946Z,1008.25
2022-08-18T06:25:09.937Z,1008.24
2022-08-18T06:26:31.820Z,1008.28
2022-08-18T06:27:09.921Z,1008.25
2022-08-18T06:28:09.952Z,1008.29
2022-08-18T06:29:09.963Z,1008.30
2022-08-18T06:30:09.906Z,1008.27
2022-08-18T06:31:10.850Z,1008.28
2022-08-18T06:32:30.874Z,1008.27
2022-08-18T06:33:09.883Z,1008.31
2022-08-18T06:34:09.878Z,1008.30
2022-08-18T06:35:09.899Z,1008.35
2022-08-18T06:36:09.811Z,1008.31
2022-08-18T06:37:09.819Z,1008.33
2022-08-18T06:38:30.819Z,1008.31
2022-08-18T06:39:09.819Z,1008.33
2022-08-18T06:40:09.854Z,1008.33
2022-08-18T06:41:09.797Z,1008.33
2022-08-18T06:42:09.758Z,1008.37
2022-08-18T06:43:09.772Z,1008.35
2022-08-18T06:44:30.774Z,1008.38
2022-08-18T06:45:09.769Z,1008.36
2022-08-18T06:46:09.709Z,1008.41
2022-08-18T06:47:09.787Z,1008.40
2022-08-18T06:48:12.668Z,1008.40
2022-08-18T06:49:09.699Z,1008.40
2022-08-18T06:50:30.694Z,1008.38
2022-08-18T06:51:09.669Z,1008.39
2022-08-18T06:52:09.688Z,1008.42
2022-08-18T06:53:27.501Z,1008.38
2022-08-18T06:54:09.630Z,1008.41
2022-08-18T06:55:09.651Z,1008.40
2022-08-18T06:56:30.690Z,1008.37
2022-08-18T06:57:09.607Z,1008.41
2022-08-18T06:58:09.581Z,1008.40
2022-08-18T06:59:09.615Z,1008.39
2022-08-18T07:00:09.569Z,1008.40
2022-08-18T07:01:09.613Z,1008.39
2022-08-18T07:02:30.581Z,1008.38
2022-08-18T07:03:09.573Z,1008.41
2022-08-18T07:04:09.583Z,1008.40
2022-08-18T07:05:09.554Z,1008.38
2022-08-18T07:06:10.369Z,1008.44
2022-08-18T07:07:09.530Z,1008.43
2022-08-18T07:08:30.514Z,1008.44
2022-08-18T07:09:09.483Z,1008.45
2022-08-18T07:10:09.491Z,1008.45
2022-08-18T07:11:09.443Z,1008.44
2022-08-18T07:12:09.443Z,1008.47
2022-08-18T07:13:09.450Z,1008.50
2022-08-18T07:14:30.449Z,1008.49
2022-08-18T07:15:09.445Z,1008.48
2022-08-18T07:16:09.401Z,1008.46
2022-08-18T07:17:10.386Z,1008.54
2022-08-18T07:18:09.384Z,1008.54
2022-08-18T07:19:09.450Z,1008.57
2022-08-18T07:20:30.386Z,1008.61
2022-08-18T07:21:09.359Z,1008.57
2022-08-18T07:22:09.374Z,1008.58
2022-08-18T07:23:09.373Z,1008.60
2022-08-18T07:24:24.377Z,1008.61
2022-08-18T07:25:09.340Z,1008.61
2022-08-18T07:26:30.322Z,1008.61
2022-08-18T07:27:09.338Z,1008.61
2022-08-18T07:28:09.337Z,1008.63
2022-08-18T07:29:09.264Z,1008.65
2022-08-18T07:30:09.270Z,1008.58
2022-08-18T07:31:16.847Z,1008.59
2022-08-18T07:32:30.865Z,1008.60
2022-08-18T07:33:09.236Z,1008.59
2022-08-18T07:34:09.244Z,1008.60
2022-08-18T07:35:09.249Z,1008.65
2022-08-18T07:36:09.206Z,1008.64
2022-08-18T07:37:09.226Z,1008.65
2022-08-18T07:38:44.638Z,1008.68
2022-08-18T07:39:09.212Z,1008.69
2022-08-18T07:40:09.243Z,1008.69
2022-08-18T07:41:09.228Z,1008.68
2022-08-18T07:42:09.147Z,1008.73
2022-08-18T07:43:09.166Z,1008.71
2022-08-18T07:44:30.142Z,1008.72
2022-08-18T07:45:09.147Z,1008.75
2022-08-18T07:46:09.165Z,1008.73
2022-08-18T07:47:09.212Z,1008.75
2022-08-18T07:48:27.469Z,1008.74
2022-08-18T07:49:09.195Z,1008.75
2022-08-18T07:50:57.426Z,1008.73
2022-08-18T07:51:09.199Z,1008.73
2022-08-18T07:52:35.831Z,1008.76
2022-08-18T07:53:09.065Z,1008.73
2022-08-18T07:54:20.082Z,1008.77
2022-08-18T07:55:09.950Z,1008.77
2022-08-18T07:56:30.038Z,1008.77
2022-08-18T07:57:09.082Z,1008.81
2022-08-18T07:58:09.042Z,1008.82
2022-08-18T07:59:09.877Z,1008.81
2022-08-18T08:00:11.228Z,1008.82
2022-08-18T08:01:08.985Z,1008.82
2022-08-18T08:02:30.020Z,1008.82
2022-08-18T08:03:09.880Z,1008.83
2022-08-18T08:04:08.974Z,1008.86
2022-08-18T08:05:08.951Z,1008.83
2022-08-18T08:06:08.958Z,1008.85
2022-08-18T08:07:25.554Z,1008.87
2022-08-18T08:08:29.957Z,1008.86
2022-08-18T08:09:08.916Z,1008.88
2022-08-18T08:10:08.933Z,1008.86
2022-08-18T08:11:08.921Z,1008.84
2022-08-18T08:12:08.887Z,1008.83
2022-08-18T08:13:09.955Z,1008.86
2022-08-18T08:14:29.902Z,1008.84
2022-08-18T08:15:08.858Z,1008.84
2022-08-18T08:16:09.375Z,1008.86
2022-08-18T08:17:08.862Z,1008.84
2022-08-18T08:18:08.838Z,1008.86
2022-08-18T08:19:12.566Z,1008.87
2022-08-18T08:20:32.968Z,1008.87
2022-08-18T08:21:08.797Z,1008.87
2022-08-18T08:22:08.809Z,1008.89
2022-08-18T08:23:08.814Z,1008.86
2022-08-18T08:24:08.806Z,1008.87
2022-08-18T08:25:22.732Z,1008.87
2022-08-18T08:26:29.776Z,1008.88
2022-08-18T08:27:08.788Z,1008.86
2022-08-18T08:28:08.740Z,1008.88
2022-08-18T08:29:08.750Z,1008.82
2022-08-18T08:30:08.758Z,1008.84
2022-08-18T08:31:33.158Z,1008.85
2022-08-18T08:32:29.711Z,1008.82
2022-08-18T08:33:08.721Z,1008.84
2022-08-18T08:34:08.775Z,1008.82
2022-08-18T08:35:12.724Z,1008.82
2022-08-18T08:36:08.780Z,1008.86
2022-08-18T08:37:08.702Z,1008.82
2022-08-18T08:38:42.453Z,1008.79
2022-08-18T08:39:08.664Z,1008.81
2022-08-18T08:40:08.724Z,1008.84
2022-08-18T08:41:08.637Z,1008.79
2022-08-18T08:42:29.687Z,1008.79
2022-08-18T08:43:08.640Z,1008.82
2022-08-18T08:44:30.402Z,1008.85
2022-08-18T08:45:08.645Z,1008.84
2022-08-18T08:46:08.641Z,1008.82
2022-08-18T08:47:08.612Z,1008.85
2022-08-18T08:48:09.720Z,1008.83
2022-08-18T08:49:08.582Z,1008.82
2022-08-18T08:50:29.586Z,1008.81
2022-08-18T08:51:08.586Z,1008.79
2022-08-18T08:52:08.587Z,1008.78
2022-08-18T08:53:08.616Z,1008.80
2022-08-18T08:54:08.557Z,1008.83
2022-08-18T08:55:08.550Z,1008.83
2022-08-18T08:56:29.525Z,1008.79
2022-08-18T08:57:09.859Z,1008.80
2022-08-18T08:58:08.520Z,1008.79
2022-08-18T08:59:10.290Z,1008.74
2022-08-18T09:00:08.541Z,1008.75
2022-08-18T09:01:08.500Z,1008.76
2022-08-18T09:02:47.249Z,1008.74
2022-08-18T09:03:08.494Z,1008.73
2022-08-18T09:04:09.398Z,1008.72
2022-08-18T09:05:09.858Z,1008.73
2022-08-18T09:06:08.537Z,1008.71
2022-08-18T09:07:08.503Z,1008.73
2022-08-18T09:08:29.440Z,1008.71
2022-08-18T09:09:08.449Z,1008.71
2022-08-18T09:10:08.403Z,1008.73
2022-08-18T09:11:08.928Z,1008.71
2022-08-18T09:12:08.421Z,1008.71
2022-08-18T09:13:08.421Z,1008.76
2022-08-18T09:14:29.401Z,1008.73
2022-08-18T09:15:08.391Z,1008.72
2022-08-18T09:16:12.340Z,1008.75
2022-08-18T09:17:08.362Z,1008.70
2022-08-18T09:18:08.927Z,1008.68
2022-08-18T09:19:08.377Z,1008.68
2022-08-18T09:20:29.365Z,1008.72
2022-08-18T09:21:08.988Z,1008.72
2022-08-18T09:22:08.339Z,1008.69
2022-08-18T09:23:08.349Z,1008.71
2022-08-18T09:24:08.303Z,1008.68
2022-08-18T09:25:08.318Z,1008.69
2022-08-18T09:26:29.921Z,1008.70
2022-08-18T09:27:08.315Z,1008.71
2022-08-18T09:28:10.846Z,1008.72
2022-08-18T09:29:08.286Z,1008.75
2022-08-18T09:30:08.297Z,1008.75
2022-08-18T09:31:08.797Z,1008.75
2022-08-18T09:32:29.330Z,1008.74
2022-08-18T09:33:19.113Z,1008.73
2022-08-18T09:34:10.628Z,1008.70
2022-08-18T09:35:08.270Z,1008.72
2022-08-18T09:36:10.101Z,1008.72
2022-08-18T09:37:08.244Z,1008.72
2022-08-18T09:38:29.235Z,1008.71
2022-08-18T09:39:08.194Z,1008.76
2022-08-18T09:40:11.314Z,1008.71
2022-08-18T09:41:08.237Z,1008.71
2022-08-18T09:42:08.237Z,1008.73
2022-08-18T09:43:09.057Z,1008.76
2022-08-18T09:44:29.174Z,1008.75
2022-08-18T09:45:08.173Z,1008.74
2022-08-18T09:46:08.175Z,1008.75
2022-08-18T09:47:08.961Z,1008.75
2022-08-18T09:48:10.065Z,1008.72
2022-08-18T09:49:08.438Z,1008.76
2022-08-18T09:50:29.878Z,1008.76
2022-08-18T09:51:08.132Z,1008.77
2022-08-18T09:52:08.142Z,1008.76
2022-08-18T09:53:08.094Z,1008.79
2022-08-18T09:54:08.109Z,1008.77
2022-08-18T09:55:09.012Z,1008.78
2022-08-18T09:56:29.963Z,1008.76
2022-08-18T09:57:08.111Z,1008.77
2022-08-18T09:58:08.114Z,1008.80
2022-08-18T09:59:10.760Z,1008.80
2022-08-18T10:00:08.183Z,1008.79
2022-08-18T10:01:08.083Z,1008.80
2022-08-18T10:02:29.049Z,1008.78
2022-08-18T10:03:08.970Z,1008.78
2022-08-18T10:04:08.043Z,1008.78
2022-08-18T10:05:08.019Z,1008.80
2022-08-18T10:06:12.653Z,1008.83
2022-08-18T10:07:08.032Z,1008.79
2022-08-18T10:08:29.835Z,1008.77
2022-08-18T10:09:17.975Z,1008.82
2022-08-18T10:12:08.009Z,1008.84
2022-08-18T10:13:07.970Z,1008.84
2022-08-18T10:14:28.973Z,1008.84
2022-08-18T10:15:08.016Z,1008.85
2022-08-18T10:16:10.265Z,1008.90
2022-08-18T10:17:24.337Z,1008.87
2022-08-18T10:18:07.972Z,1008.87
2022-08-18T10:19:07.963Z,1008.90
2022-08-18T10:20:28.970Z,1008.90
2022-08-18T10:21:07.921Z,1008.87
2022-08-18T10:22:07.933Z,1008.89
2022-08-18T10:23:07.937Z,1008.90
2022-08-18T10:24:34.890Z,1008.91
2022-08-18T10:25:22.058Z,1008.91
2022-08-18T10:26:28.900Z,1008.91
2022-08-18T10:27:07.911Z,1008.92
2022-08-18T10:28:07.933Z,1008.92
2022-08-18T10:29:07.873Z,1008.94
2022-08-18T10:30:07.890Z,1008.98
2022-08-18T10:31:09.807Z,1008.97
2022-08-18T10:32:28.851Z,1008.96
2022-08-18T10:33:17.769Z,1008.98
2022-08-18T10:34:19.654Z,1008.97
2022-08-18T10:35:07.867Z,1008.92
2022-08-18T10:36:07.819Z,1008.93
2022-08-18T10:37:07.824Z,1008.93
2022-08-18T10:38:30.964Z,1008.89
2022-08-18T10:39:07.789Z,1008.87
2022-08-18T10:40:07.917Z,1008.89
2022-08-18T10:41:15.152Z,1008.91
2022-08-18T10:42:07.815Z,1008.89
2022-08-18T10:43:26.727Z,1008.91
2022-08-18T10:44:29.860Z,1008.88
2022-08-18T10:45:07.784Z,1008.89
2022-08-18T10:47:12.150Z,1008.90
2022-08-18T10:48:11.956Z,1008.90
2022-08-18T10:50:28.748Z,1008.86
2022-08-18T10:51:07.716Z,1008.82
2022-08-18T10:52:07.733Z,1008.84
2022-08-18T10:53:40.848Z,1008.87
2022-08-18T10:54:07.693Z,1008.87
2022-08-18T10:55:10.172Z,1008.87
2022-08-18T10:56:28.710Z,1008.86
2022-08-18T10:57:07.694Z,1008.85
2022-08-18T10:58:07.711Z,1008.84
2022-08-18T10:59:07.669Z,1008.84
2022-08-18T11:00:07.677Z,1008.87
2022-08-18T11:01:07.692Z,1008.85
2022-08-18T11:02:28.678Z,1008.83
2022-08-18T11:03:42.721Z,1008.81
2022-08-18T11:04:14.113Z,1008.82
2022-08-18T11:06:14.487Z,1008.84
2022-08-18T11:07:08.192Z,1008.86
2022-08-18T11:08:29.098Z,1008.84
2022-08-18T11:09:07.592Z,1008.86
2022-08-18T11:10:29.377Z,1008.82
2022-08-18T11:12:07.600Z,1008.82
2022-08-18T11:13:09.682Z,1008.89
2022-08-18T11:14:28.598Z,1008.88
2022-08-18T11:16:10.291Z,1008.92
2022-08-18T11:17:07.559Z,1008.91
2022-08-18T11:18:10.667Z,1008.91
2022-08-18T11:19:08.559Z,1008.93
2022-08-18T11:20:29.531Z,1008.91
2022-08-18T11:21:12.604Z,1008.95
2022-08-18T11:22:07.571Z,1008.97
2022-08-18T11:23:07.539Z,1008.96
2022-08-18T11:24:07.585Z,1008.97
2022-08-18T11:25:07.575Z,1008.97
2022-08-18T11:26:28.501Z,1009.00
2022-08-18T11:27:15.654Z,1009.01
2022-08-18T11:28:07.493Z,1008.99
2022-08-18T11:29:07.514Z,1009.00
2022-08-18T11:30:07.523Z,1008.99
2022-08-18T11:31:07.491Z,1009.01
2022-08-18T11:32:28.487Z,1008.98
2022-08-18T11:33:07.448Z,1008.96
2022-08-18T11:34:08.020Z,1008.99
2022-08-18T11:35:07.541Z,1008.99
2022-08-18T11:36:07.462Z,1009.01
2022-08-18T11:37:09.146Z,1008.96
2022-08-18T11:38:29.421Z,1008.95
2022-08-18T11:39:07.429Z,1008.95
2022-08-18T11:40:07.489Z,1008.90
2022-08-18T11:41:10.455Z,1008.94
2022-08-18T11:42:08.014Z,1008.90
2022-08-18T11:43:07.401Z,1008.92
2022-08-18T11:44:28.413Z,1008.93
2022-08-18T11:45:07.368Z,1008.95
2022-08-18T11:46:07.373Z,1008.91
2022-08-18T11:47:07.384Z,1008.90
2022-08-18T11:48:07.424Z,1008.87
2022-08-18T11:49:07.346Z,1008.92
2022-08-18T11:50:28.349Z,1008.89
2022-08-18T11:51:07.353Z,1008.89
2022-08-18T11:52:07.967Z,1008.85
2022-08-18T11:53:07.335Z,1008.88
2022-08-18T11:54:07.340Z,1008.89
2022-08-18T11:56:31.439Z,1008.89
2022-08-18T11:58:12.552Z,1008.84
2022-08-18T11:59:07.728Z,1008.82
2022-08-18T12:00:07.351Z,1008.88
2022-08-18T12:01:07.289Z,1008.89
2022-08-18T12:02:28.326Z,1008.88
2022-08-18T12:03:07.335Z,1008.86
2022-08-18T12:04:07.334Z,1008.86
2022-08-18T12:05:08.676Z,1008.79
2022-08-18T12:06:08.080Z,1008.85
2022-08-18T12:07:07.251Z,1008.83
2022-08-18T12:09:07.229Z,1008.77
2022-08-18T12:10:18.261Z,1008.79
2022-08-18T12:11:27.266Z,1008.80
2022-08-18T12:12:07.212Z,1008.81
2022-08-18T12:13:07.202Z,1008.81
2022-08-18T12:14:30.179Z,1008.76
2022-08-18T12:15:11.902Z,1008.76